sensor_id;sensor_type;location;lat;lon;timestamp;P1;durP1;ratioP1;P2;durP2;ratioP2
59024;SDS011;44806;48.008;13.666;2023-09-18T00:01:04;8.27;;;4.63;;
59024;SDS011;44806;48.008;13.666;2023-09-18T00:03:33;5.68;;;2.92;;
59024;SDS011;44806;48.008;13.666;2023-09-18T00:06:00;5.75;;;2.72;;
59024;SDS011;44806;48.008;13.666;2023-09-18T00:08:27;4.88;;;2.20;;
59024;SDS011;44806;48.008;13.666;2023-09-18T00:10:54;4.97;;;2.15;;
59024;SDS011;44806;48.008;13.666;2023-09-18T00:13:21;7.53;;;3.75;;
59024;SDS011;44806;48.008;13.666;2023-09-18T00:15:48;5.78;;;2.60;;
59024;SDS011;44806;48.008;13.666;2023-09-18T00:18:18;7.70;;;3.00;;
59024;SDS011;44806;48.008;13.666;2023-09-18T00:20:44;6.93;;;2.70;;
59024;SDS011;44806;48.008;13.666;2023-09-18T00:23:13;10.73;;;4.53;;
59024;SDS011;44806;48.008;13.666;2023-09-18T00:25:40;6.07;;;2.78;;
59024;SDS011;44806;48.008;13.666;2023-09-18T00:28:07;7.10;;;2.65;;
59024;SDS011;44806;48.008;13.666;2023-09-18T00:30:34;7.63;;;3.22;;
59024;SDS011;44806;48.008;13.666;2023-09-18T00:33:03;5.82;;;2.42;;
59024;SDS011;44806;48.008;13.666;2023-09-18T00:35:32;5.78;;;2.40;;
59024;SDS011;44806;48.008;13.666;2023-09-18T00:37:58;5.53;;;2.75;;
59024;SDS011;44806;48.008;13.666;2023-09-18T00:40:28;11.02;;;3.65;;
59024;SDS011;44806;48.008;13.666;2023-09-18T00:42:56;6.47;;;2.70;;
59024;SDS011;44806;48.008;13.666;2023-09-18T00:45:22;5.50;;;2.55;;
59024;SDS011;44806;48.008;13.666;2023-09-18T00:47:49;8.57;;;3.05;;
59024;SDS011;44806;48.008;13.666;2023-09-18T00:50:16;6.10;;;2.92;;
59024;SDS011;44806;48.008;13.666;2023-09-18T00:52:45;6.13;;;2.53;;
59024;SDS011;44806;48.008;13.666;2023-09-18T00:55:12;4.68;;;2.38;;
59024;SDS011;44806;48.008;13.666;2023-09-18T00:57:40;6.30;;;2.70;;
59024;SDS011;44806;48.008;13.666;2023-09-18T01:00:08;7.95;;;3.67;;
59024;SDS011;44806;48.008;13.666;2023-09-18T01:02:35;10.98;;;3.45;;
59024;SDS011;44806;48.008;13.666;2023-09-18T01:05:03;6.47;;;2.75;;
59024;SDS011;44806;48.008;13.666;2023-09-18T01:07:30;9.25;;;3.22;;
59024;SDS011;44806;48.008;13.666;2023-09-18T01:09:58;9.77;;;3.30;;
59024;SDS011;44806;48.008;13.666;2023-09-18T01:12:27;6.07;;;2.88;;
59024;SDS011;44806;48.008;13.666;2023-09-18T01:15:00;7.05;;;2.63;;
59024;SDS011;44806;48.008;13.666;2023-09-18T01:17:34;7.07;;;2.75;;
59024;SDS011;44806;48.008;13.666;2023-09-18T01:20:03;7.18;;;3.40;;
59024;SDS011;44806;48.008;13.666;2023-09-18T01:22:33;5.82;;;2.78;;
59024;SDS011;44806;48.008;13.666;2023-09-18T01:25:00;5.03;;;2.28;;
59024;SDS011;44806;48.008;13.666;2023-09-18T01:27:27;6.10;;;2.80;;
59024;SDS011;44806;48.008;13.666;2023-09-18T01:29:54;4.50;;;2.30;;
59024;SDS011;44806;48.008;13.666;2023-09-18T01:32:21;9.35;;;3.20;;
59024;SDS011;44806;48.008;13.666;2023-09-18T01:34:53;6.07;;;2.63;;
59024;SDS011;44806;48.008;13.666;2023-09-18T01:37:22;7.15;;;3.00;;
59024;SDS011;44806;48.008;13.666;2023-09-18T01:39:53;7.65;;;2.83;;
59024;SDS011;44806;48.008;13.666;2023-09-18T01:42:23;5.32;;;2.40;;
59024;SDS011;44806;48.008;13.666;2023-09-18T01:44:51;5.78;;;2.75;;
59024;SDS011;44806;48.008;13.666;2023-09-18T01:47:20;7.90;;;2.67;;
59024;SDS011;44806;48.008;13.666;2023-09-18T01:49:48;6.70;;;2.67;;
59024;SDS011;44806;48.008;13.666;2023-09-18T01:52:15;5.90;;;2.42;;
59024;SDS011;44806;48.008;13.666;2023-09-18T01:54:42;5.50;;;2.30;;
59024;SDS011;44806;48.008;13.666;2023-09-18T01:57:11;7.55;;;2.47;;
59024;SDS011;44806;48.008;13.666;2023-09-18T01:59:38;6.95;;;2.30;;
59024;SDS011;44806;48.008;13.666;2023-09-18T02:02:07;8.60;;;3.13;;
59024;SDS011;44806;48.008;13.666;2023-09-18T02:04:35;7.53;;;2.72;;
59024;SDS011;44806;48.008;13.666;2023-09-18T02:07:02;7.22;;;2.72;;
59024;SDS011;44806;48.008;13.666;2023-09-18T02:09:29;6.45;;;2.80;;
59024;SDS011;44806;48.008;13.666;2023-09-18T02:11:56;6.15;;;2.70;;
59024;SDS011;44806;48.008;13.666;2023-09-18T02:14:24;7.35;;;3.08;;
59024;SDS011;44806;48.008;13.666;2023-09-18T02:16:51;6.20;;;3.03;;
59024;SDS011;44806;48.008;13.666;2023-09-18T02:19:19;5.95;;;2.95;;
59024;SDS011;44806;48.008;13.666;2023-09-18T02:21:46;7.90;;;2.42;;
59024;SDS011;44806;48.008;13.666;2023-09-18T02:24:12;9.65;;;3.10;;
59024;SDS011;44806;48.008;13.666;2023-09-18T02:26:39;5.07;;;2.47;;
59024;SDS011;44806;48.008;13.666;2023-09-18T02:29:07;6.80;;;2.70;;
59024;SDS011;44806;48.008;13.666;2023-09-18T02:34:44;5.27;;;2.57;;
59024;SDS011;44806;48.008;13.666;2023-09-18T02:37:10;5.38;;;2.20;;
59024;SDS011;44806;48.008;13.666;2023-09-18T02:39:37;10.65;;;2.78;;
59024;SDS011;44806;48.008;13.666;2023-09-18T02:42:04;7.05;;;2.83;;
59024;SDS011;44806;48.008;13.666;2023-09-18T02:44:31;8.75;;;2.55;;
59024;SDS011;44806;48.008;13.666;2023-09-18T02:46:58;4.55;;;2.08;;
59024;SDS011;44806;48.008;13.666;2023-09-18T02:49:25;6.30;;;2.55;;
59024;SDS011;44806;48.008;13.666;2023-09-18T02:51:53;4.85;;;2.40;;
59024;SDS011;44806;48.008;13.666;2023-09-18T02:54:20;5.25;;;2.30;;
59024;SDS011;44806;48.008;13.666;2023-09-18T02:56:47;5.25;;;2.47;;
59024;SDS011;44806;48.008;13.666;2023-09-18T02:59:14;6.38;;;2.67;;
59024;SDS011;44806;48.008;13.666;2023-09-18T03:01:41;5.57;;;2.20;;
59024;SDS011;44806;48.008;13.666;2023-09-18T03:04:08;6.00;;;2.58;;
59024;SDS011;44806;48.008;13.666;2023-09-18T03:06:37;6.75;;;2.33;;
59024;SDS011;44806;48.008;13.666;2023-09-18T03:09:06;6.40;;;2.50;;
59024;SDS011;44806;48.008;13.666;2023-09-18T03:11:33;5.00;;;2.40;;
59024;SDS011;44806;48.008;13.666;2023-09-18T03:14:00;5.57;;;2.35;;
59024;SDS011;44806;48.008;13.666;2023-09-18T03:16:27;5.38;;;2.47;;
59024;SDS011;44806;48.008;13.666;2023-09-18T03:18:56;5.45;;;2.10;;
59024;SDS011;44806;48.008;13.666;2023-09-18T03:21:23;6.55;;;2.50;;
59024;SDS011;44806;48.008;13.666;2023-09-18T03:23:50;8.50;;;2.83;;
59024;SDS011;44806;48.008;13.666;2023-09-18T03:26:18;6.70;;;3.03;;
59024;SDS011;44806;48.008;13.666;2023-09-18T03:28:45;5.53;;;2.35;;
59024;SDS011;44806;48.008;13.666;2023-09-18T03:31:12;6.25;;;2.47;;
59024;SDS011;44806;48.008;13.666;2023-09-18T03:33:39;6.30;;;2.70;;
59024;SDS011;44806;48.008;13.666;2023-09-18T03:36:06;5.55;;;2.25;;
59024;SDS011;44806;48.008;13.666;2023-09-18T03:38:36;4.57;;;1.98;;
59024;SDS011;44806;48.008;13.666;2023-09-18T03:41:03;6.90;;;2.53;;
59024;SDS011;44806;48.008;13.666;2023-09-18T03:43:31;5.50;;;2.25;;
59024;SDS011;44806;48.008;13.666;2023-09-18T03:46:02;5.65;;;2.20;;
59024;SDS011;44806;48.008;13.666;2023-09-18T03:48:30;5.15;;;2.30;;
59024;SDS011;44806;48.008;13.666;2023-09-18T03:51:02;6.53;;;2.53;;
59024;SDS011;44806;48.008;13.666;2023-09-18T03:53:29;3.95;;;1.67;;
59024;SDS011;44806;48.008;13.666;2023-09-18T03:55:56;5.75;;;2.50;;
59024;SDS011;44806;48.008;13.666;2023-09-18T03:58:23;4.78;;;2.28;;
59024;SDS011;44806;48.008;13.666;2023-09-18T04:00:51;7.35;;;2.83;;
59024;SDS011;44806;48.008;13.666;2023-09-18T04:03:18;7.22;;;2.60;;
59024;SDS011;44806;48.008;13.666;2023-09-18T04:05:45;5.80;;;2.55;;
59024;SDS011;44806;48.008;13.666;2023-09-18T04:08:12;5.90;;;2.33;;
59024;SDS011;44806;48.008;13.666;2023-09-18T04:10:39;7.13;;;3.10;;
59024;SDS011;44806;48.008;13.666;2023-09-18T04:13:05;6.13;;;2.70;;
59024;SDS011;44806;48.008;13.666;2023-09-18T04:15:33;5.55;;;2.63;;
59024;SDS011;44806;48.008;13.666;2023-09-18T04:18:04;7.10;;;2.50;;
59024;SDS011;44806;48.008;13.666;2023-09-18T04:20:31;9.75;;;2.58;;
59024;SDS011;44806;48.008;13.666;2023-09-18T04:25:50;12.48;;;3.17;;
59024;SDS011;44806;48.008;13.666;2023-09-18T04:28:18;6.68;;;3.22;;
59024;SDS011;44806;48.008;13.666;2023-09-18T04:30:46;6.68;;;3.42;;
59024;SDS011;44806;48.008;13.666;2023-09-18T04:33:14;8.60;;;3.22;;
59024;SDS011;44806;48.008;13.666;2023-09-18T04:35:42;6.85;;;2.90;;
59024;SDS011;44806;48.008;13.666;2023-09-18T04:38:09;7.00;;;3.10;;
59024;SDS011;44806;48.008;13.666;2023-09-18T04:40:36;5.18;;;2.45;;
59024;SDS011;44806;48.008;13.666;2023-09-18T04:43:03;6.85;;;3.08;;
59024;SDS011;44806;48.008;13.666;2023-09-18T04:45:30;10.25;;;3.55;;
59024;SDS011;44806;48.008;13.666;2023-09-18T04:47:57;8.60;;;2.88;;
59024;SDS011;44806;48.008;13.666;2023-09-18T04:50:26;6.97;;;3.03;;
59024;SDS011;44806;48.008;13.666;2023-09-18T04:52:53;5.20;;;2.20;;
59024;SDS011;44806;48.008;13.666;2023-09-18T04:55:21;7.22;;;2.95;;
59024;SDS011;44806;48.008;13.666;2023-09-18T04:57:48;6.00;;;2.60;;
59024;SDS011;44806;48.008;13.666;2023-09-18T05:00:15;7.55;;;3.15;;
59024;SDS011;44806;48.008;13.666;2023-09-18T05:02:42;6.00;;;2.55;;
59024;SDS011;44806;48.008;13.666;2023-09-18T05:05:09;6.43;;;2.47;;
59024;SDS011;44806;48.008;13.666;2023-09-18T05:07:38;7.35;;;3.63;;
59024;SDS011;44806;48.008;13.666;2023-09-18T05:10:05;6.60;;;3.25;;
59024;SDS011;44806;48.008;13.666;2023-09-18T05:12:32;9.65;;;3.17;;
59024;SDS011;44806;48.008;13.666;2023-09-18T05:14:59;25.30;;;5.03;;
59024;SDS011;44806;48.008;13.666;2023-09-18T05:17:39;9.93;;;3.13;;
59024;SDS011;44806;48.008;13.666;2023-09-18T05:20:08;10.43;;;3.38;;
59024;SDS011;44806;48.008;13.666;2023-09-18T05:22:39;16.17;;;4.30;;
59024;SDS011;44806;48.008;13.666;2023-09-18T05:25:07;9.02;;;3.92;;
59024;SDS011;44806;48.008;13.666;2023-09-18T05:27:35;28.67;;;4.30;;
59024;SDS011;44806;48.008;13.666;2023-09-18T05:30:09;17.63;;;4.10;;
59024;SDS011;44806;48.008;13.666;2023-09-18T05:32:37;7.68;;;3.80;;
59024;SDS011;44806;48.008;13.666;2023-09-18T05:35:05;6.85;;;2.88;;
59024;SDS011;44806;48.008;13.666;2023-09-18T05:37:35;10.77;;;4.47;;
59024;SDS011;44806;48.008;13.666;2023-09-18T05:40:04;9.82;;;3.38;;
59024;SDS011;44806;48.008;13.666;2023-09-18T05:42:34;9.15;;;4.28;;
59024;SDS011;44806;48.008;13.666;2023-09-18T05:45:01;11.80;;;3.78;;
59024;SDS011;44806;48.008;13.666;2023-09-18T05:47:29;58.28;;;5.90;;
59024;SDS011;44806;48.008;13.666;2023-09-18T05:49:56;131.63;;;7.90;;
59024;SDS011;44806;48.008;13.666;2023-09-18T05:52:23;48.78;;;4.72;;
59024;SDS011;44806;48.008;13.666;2023-09-18T05:54:50;14.02;;;5.05;;
59024;SDS011;44806;48.008;13.666;2023-09-18T05:57:18;56.92;;;6.97;;
59024;SDS011;44806;48.008;13.666;2023-09-18T05:59:45;67.13;;;6.90;;
59024;SDS011;44806;48.008;13.666;2023-09-18T06:02:13;26.95;;;5.20;;
59024;SDS011;44806;48.008;13.666;2023-09-18T06:04:41;8.60;;;4.10;;
59024;SDS011;44806;48.008;13.666;2023-09-18T06:07:08;126.82;;;7.95;;
59024;SDS011;44806;48.008;13.666;2023-09-18T06:09:35;25.00;;;5.07;;
59024;SDS011;44806;48.008;13.666;2023-09-18T06:12:02;13.45;;;4.35;;
59024;SDS011;44806;48.008;13.666;2023-09-18T06:14:31;38.40;;;4.82;;
59024;SDS011;44806;48.008;13.666;2023-09-18T06:16:59;48.20;;;6.20;;
59024;SDS011;44806;48.008;13.666;2023-09-18T06:19:26;32.50;;;5.50;;
59024;SDS011;44806;48.008;13.666;2023-09-18T06:21:54;12.15;;;5.20;;
59024;SDS011;44806;48.008;13.666;2023-09-18T06:24:20;63.13;;;6.30;;
59024;SDS011;44806;48.008;13.666;2023-09-18T06:26:47;59.08;;;6.75;;
59024;SDS011;44806;48.008;13.666;2023-09-18T06:29:16;35.85;;;6.38;;
59024;SDS011;44806;48.008;13.666;2023-09-18T06:31:44;18.52;;;6.55;;
59024;SDS011;44806;48.008;13.666;2023-09-18T06:34:11;12.07;;;5.22;;
59024;SDS011;44806;48.008;13.666;2023-09-18T06:36:38;11.75;;;5.90;;
59024;SDS011;44806;48.008;13.666;2023-09-18T06:39:05;15.02;;;6.25;;
59024;SDS011;44806;48.008;13.666;2023-09-18T06:41:32;14.75;;;6.45;;
59024;SDS011;44806;48.008;13.666;2023-09-18T06:43:59;12.57;;;6.47;;
59024;SDS011;44806;48.008;13.666;2023-09-18T06:46:28;13.98;;;6.97;;
59024;SDS011;44806;48.008;13.666;2023-09-18T06:48:57;11.52;;;4.45;;
59024;SDS011;44806;48.008;13.666;2023-09-18T06:51:25;12.52;;;6.07;;
59024;SDS011;44806;48.008;13.666;2023-09-18T06:53:52;8.98;;;4.90;;
59024;SDS011;44806;48.008;13.666;2023-09-18T06:56:19;10.05;;;5.55;;
59024;SDS011;44806;48.008;13.666;2023-09-18T06:58:46;10.85;;;5.47;;
59024;SDS011;44806;48.008;13.666;2023-09-18T07:01:16;11.80;;;5.18;;
59024;SDS011;44806;48.008;13.666;2023-09-18T07:03:43;10.93;;;5.75;;
59024;SDS011;44806;48.008;13.666;2023-09-18T07:06:13;11.82;;;5.05;;
59024;SDS011;44806;48.008;13.666;2023-09-18T07:08:41;10.57;;;5.85;;
59024;SDS011;44806;48.008;13.666;2023-09-18T07:11:08;11.23;;;5.78;;
59024;SDS011;44806;48.008;13.666;2023-09-18T07:13:35;11.23;;;6.20;;
59024;SDS011;44806;48.008;13.666;2023-09-18T07:16:02;10.90;;;5.32;;
59024;SDS011;44806;48.008;13.666;2023-09-18T07:18:29;10.35;;;5.28;;
59024;SDS011;44806;48.008;13.666;2023-09-18T07:20:56;11.40;;;5.70;;
59024;SDS011;44806;48.008;13.666;2023-09-18T07:23:25;13.55;;;6.75;;
59024;SDS011;44806;48.008;13.666;2023-09-18T07:25:51;14.20;;;6.30;;
59024;SDS011;44806;48.008;13.666;2023-09-18T07:28:18;12.32;;;6.22;;
59024;SDS011;44806;48.008;13.666;2023-09-18T07:30:45;11.18;;;5.40;;
59024;SDS011;44806;48.008;13.666;2023-09-18T07:33:13;14.32;;;7.93;;
59024;SDS011;44806;48.008;13.666;2023-09-18T07:35:44;11.13;;;5.43;;
59024;SDS011;44806;48.008;13.666;2023-09-18T07:38:13;13.23;;;6.13;;
59024;SDS011;44806;48.008;13.666;2023-09-18T07:40:41;11.70;;;6.32;;
59024;SDS011;44806;48.008;13.666;2023-09-18T07:43:08;13.75;;;7.05;;
59024;SDS011;44806;48.008;13.666;2023-09-18T07:45:37;15.23;;;7.40;;
59024;SDS011;44806;48.008;13.666;2023-09-18T07:48:05;12.18;;;7.10;;
59024;SDS011;44806;48.008;13.666;2023-09-18T07:50:32;13.43;;;8.40;;
59024;SDS011;44806;48.008;13.666;2023-09-18T07:52:59;11.15;;;6.55;;
59024;SDS011;44806;48.008;13.666;2023-09-18T07:55:26;9.68;;;5.22;;
59024;SDS011;44806;48.008;13.666;2023-09-18T07:57:55;8.38;;;4.30;;
59024;SDS011;44806;48.008;13.666;2023-09-18T08:00:24;11.75;;;5.55;;
59024;SDS011;44806;48.008;13.666;2023-09-18T08:02:52;9.68;;;4.45;;
59024;SDS011;44806;48.008;13.666;2023-09-18T08:05:23;9.05;;;4.80;;
59024;SDS011;44806;48.008;13.666;2023-09-18T08:07:53;12.32;;;3.92;;
59024;SDS011;44806;48.008;13.666;2023-09-18T08:10:21;7.13;;;3.80;;
59024;SDS011;44806;48.008;13.666;2023-09-18T08:12:48;9.25;;;3.72;;
59024;SDS011;44806;48.008;13.666;2023-09-18T08:15:19;9.10;;;5.03;;
59024;SDS011;44806;48.008;13.666;2023-09-18T08:17:46;9.23;;;4.22;;
59024;SDS011;44806;48.008;13.666;2023-09-18T08:20:14;13.38;;;5.05;;
59024;SDS011;44806;48.008;13.666;2023-09-18T08:22:41;11.15;;;5.07;;
59024;SDS011;44806;48.008;13.666;2023-09-18T08:25:09;8.02;;;4.63;;
59024;SDS011;44806;48.008;13.666;2023-09-18T08:27:37;10.23;;;4.57;;
59024;SDS011;44806;48.008;13.666;2023-09-18T08:30:07;8.32;;;3.83;;
59024;SDS011;44806;48.008;13.666;2023-09-18T08:32:36;9.80;;;4.55;;
59024;SDS011;44806;48.008;13.666;2023-09-18T08:35:04;8.38;;;3.88;;
59024;SDS011;44806;48.008;13.666;2023-09-18T08:37:31;7.85;;;3.13;;
59024;SDS011;44806;48.008;13.666;2023-09-18T08:39:58;10.75;;;4.20;;
59024;SDS011;44806;48.008;13.666;2023-09-18T08:42:25;7.57;;;4.00;;
59024;SDS011;44806;48.008;13.666;2023-09-18T08:44:56;10.13;;;4.78;;
59024;SDS011;44806;48.008;13.666;2023-09-18T08:47:25;6.65;;;3.03;;
59024;SDS011;44806;48.008;13.666;2023-09-18T08:49:55;5.38;;;3.00;;
59024;SDS011;44806;48.008;13.666;2023-09-18T08:52:24;5.13;;;2.72;;
59024;SDS011;44806;48.008;13.666;2023-09-18T08:54:52;7.95;;;3.00;;
59024;SDS011;44806;48.008;13.666;2023-09-18T08:57:21;7.65;;;3.33;;
59024;SDS011;44806;48.008;13.666;2023-09-18T08:59:49;5.97;;;2.60;;
59024;SDS011;44806;48.008;13.666;2023-09-18T09:02:19;6.35;;;3.20;;
59024;SDS011;44806;48.008;13.666;2023-09-18T09:04:46;7.40;;;3.38;;
59024;SDS011;44806;48.008;13.666;2023-09-18T09:07:14;8.35;;;3.20;;
59024;SDS011;44806;48.008;13.666;2023-09-18T09:09:41;9.43;;;3.20;;
59024;SDS011;44806;48.008;13.666;2023-09-18T09:12:08;7.72;;;3.67;;
59024;SDS011;44806;48.008;13.666;2023-09-18T09:14:35;8.30;;;3.42;;
59024;SDS011;44806;48.008;13.666;2023-09-18T09:17:03;7.90;;;3.30;;
59024;SDS011;44806;48.008;13.666;2023-09-18T09:19:31;8.38;;;3.10;;
59024;SDS011;44806;48.008;13.666;2023-09-18T09:22:02;6.68;;;2.80;;
59024;SDS011;44806;48.008;13.666;2023-09-18T09:24:37;9.05;;;3.03;;
59024;SDS011;44806;48.008;13.666;2023-09-18T09:27:06;7.10;;;3.28;;
59024;SDS011;44806;48.008;13.666;2023-09-18T09:29:33;8.68;;;3.85;;
59024;SDS011;44806;48.008;13.666;2023-09-18T09:32:11;7.72;;;3.20;;
59024;SDS011;44806;48.008;13.666;2023-09-18T09:34:40;7.90;;;3.50;;
59024;SDS011;44806;48.008;13.666;2023-09-18T09:37:07;8.27;;;3.03;;
59024;SDS011;44806;48.008;13.666;2023-09-18T09:39:46;7.70;;;3.47;;
59024;SDS011;44806;48.008;13.666;2023-09-18T09:42:17;8.38;;;3.15;;
59024;SDS011;44806;48.008;13.666;2023-09-18T09:44:55;8.88;;;3.50;;
59024;SDS011;44806;48.008;13.666;2023-09-18T09:47:27;7.53;;;3.30;;
59024;SDS011;44806;48.008;13.666;2023-09-18T09:49:57;6.03;;;3.20;;
59024;SDS011;44806;48.008;13.666;2023-09-18T09:52:24;7.53;;;3.50;;
59024;SDS011;44806;48.008;13.666;2023-09-18T09:54:53;7.93;;;3.13;;
59024;SDS011;44806;48.008;13.666;2023-09-18T09:57:20;6.65;;;3.28;;
59024;SDS011;44806;48.008;13.666;2023-09-18T09:59:47;8.85;;;3.83;;
59024;SDS011;44806;48.008;13.666;2023-09-18T10:02:14;7.63;;;3.78;;
59024;SDS011;44806;48.008;13.666;2023-09-18T10:04:44;7.03;;;3.60;;
59024;SDS011;44806;48.008;13.666;2023-09-18T10:07:14;8.07;;;3.80;;
59024;SDS011;44806;48.008;13.666;2023-09-18T10:09:43;8.02;;;3.40;;
59024;SDS011;44806;48.008;13.666;2023-09-18T10:12:15;8.27;;;4.03;;
59024;SDS011;44806;48.008;13.666;2023-09-18T10:14:46;7.15;;;2.88;;
59024;SDS011;44806;48.008;13.666;2023-09-18T10:17:15;9.88;;;3.83;;
59024;SDS011;44806;48.008;13.666;2023-09-18T10:19:45;6.70;;;3.50;;
59024;SDS011;44806;48.008;13.666;2023-09-18T10:22:20;7.18;;;3.63;;
59024;SDS011;44806;48.008;13.666;2023-09-18T10:24:54;9.43;;;3.42;;
59024;SDS011;44806;48.008;13.666;2023-09-18T10:27:29;6.93;;;3.20;;
59024;SDS011;44806;48.008;13.666;2023-09-18T10:29:56;9.00;;;3.50;;
59024;SDS011;44806;48.008;13.666;2023-09-18T10:32:24;6.75;;;3.58;;
59024;SDS011;44806;48.008;13.666;2023-09-18T10:34:53;8.80;;;3.40;;
59024;SDS011;44806;48.008;13.666;2023-09-18T10:37:20;6.22;;;3.40;;
59024;SDS011;44806;48.008;13.666;2023-09-18T10:39:50;7.68;;;3.60;;
59024;SDS011;44806;48.008;13.666;2023-09-18T10:42:19;7.13;;;3.40;;
59024;SDS011;44806;48.008;13.666;2023-09-18T10:44:50;7.35;;;3.67;;
59024;SDS011;44806;48.008;13.666;2023-09-18T10:47:17;10.40;;;4.10;;
59024;SDS011;44806;48.008;13.666;2023-09-18T10:49:45;7.00;;;3.35;;
59024;SDS011;44806;48.008;13.666;2023-09-18T10:52:15;7.88;;;3.22;;
59024;SDS011;44806;48.008;13.666;2023-09-18T10:54:42;7.88;;;3.30;;
59024;SDS011;44806;48.008;13.666;2023-09-18T10:57:10;6.70;;;3.50;;
59024;SDS011;44806;48.008;13.666;2023-09-18T10:59:43;7.90;;;4.03;;
59024;SDS011;44806;48.008;13.666;2023-09-18T11:02:13;7.35;;;3.95;;
59024;SDS011;44806;48.008;13.666;2023-09-18T11:04:41;9.10;;;3.75;;
59024;SDS011;44806;48.008;13.666;2023-09-18T11:07:08;7.82;;;3.72;;
59024;SDS011;44806;48.008;13.666;2023-09-18T11:09:42;10.77;;;4.07;;
59024;SDS011;44806;48.008;13.666;2023-09-18T11:12:11;8.02;;;3.80;;
59024;SDS011;44806;48.008;13.666;2023-09-18T11:14:41;7.10;;;3.45;;
59024;SDS011;44806;48.008;13.666;2023-09-18T11:20:07;8.75;;;3.75;;
59024;SDS011;44806;48.008;13.666;2023-09-18T11:22:37;5.70;;;3.40;;
59024;SDS011;44806;48.008;13.666;2023-09-18T11:27:56;9.13;;;3.80;;
59024;SDS011;44806;48.008;13.666;2023-09-18T11:30:23;7.90;;;3.22;;
59024;SDS011;44806;48.008;13.666;2023-09-18T11:32:52;6.60;;;3.58;;
59024;SDS011;44806;48.008;13.666;2023-09-18T11:35:20;8.40;;;3.40;;
59024;SDS011;44806;48.008;13.666;2023-09-18T11:37:47;7.68;;;3.70;;
59024;SDS011;44806;48.008;13.666;2023-09-18T11:40:30;8.25;;;3.22;;
59024;SDS011;44806;48.008;13.666;2023-09-18T11:45:48;10.63;;;3.78;;
59024;SDS011;44806;48.008;13.666;2023-09-18T11:48:18;9.48;;;3.50;;
59024;SDS011;44806;48.008;13.666;2023-09-18T11:50:45;10.15;;;3.60;;
59024;SDS011;44806;48.008;13.666;2023-09-18T11:53:16;8.50;;;3.47;;
59024;SDS011;44806;48.008;13.666;2023-09-18T11:55:44;9.95;;;3.40;;
59024;SDS011;44806;48.008;13.666;2023-09-18T11:58:12;11.80;;;3.40;;
59024;SDS011;44806;48.008;13.666;2023-09-18T12:00:39;11.45;;;3.03;;
59024;SDS011;44806;48.008;13.666;2023-09-18T12:03:19;16.08;;;3.25;;
59024;SDS011;44806;48.008;13.666;2023-09-18T12:05:54;10.02;;;3.20;;
59024;SDS011;44806;48.008;13.666;2023-09-18T12:08:23;12.85;;;3.10;;
59024;SDS011;44806;48.008;13.666;2023-09-18T12:10:52;12.55;;;3.45;;
59024;SDS011;44806;48.008;13.666;2023-09-18T12:13:19;13.80;;;3.13;;
59024;SDS011;44806;48.008;13.666;2023-09-18T12:15:47;9.75;;;3.15;;
59024;SDS011;44806;48.008;13.666;2023-09-18T12:18:14;11.63;;;3.20;;
59024;SDS011;44806;48.008;13.666;2023-09-18T12:20:47;17.15;;;3.35;;
59024;SDS011;44806;48.008;13.666;2023-09-18T12:23:15;12.65;;;3.60;;
59024;SDS011;44806;48.008;13.666;2023-09-18T12:25:44;15.95;;;3.60;;
59024;SDS011;44806;48.008;13.666;2023-09-18T12:28:13;8.45;;;3.30;;
59024;SDS011;44806;48.008;13.666;2023-09-18T12:30:41;13.35;;;3.70;;
59024;SDS011;44806;48.008;13.666;2023-09-18T12:33:08;12.15;;;3.50;;
59024;SDS011;44806;48.008;13.666;2023-09-18T12:35:36;10.68;;;3.40;;
59024;SDS011;44806;48.008;13.666;2023-09-18T12:38:15;14.65;;;4.00;;
59024;SDS011;44806;48.008;13.666;2023-09-18T12:40:44;10.95;;;3.60;;
59024;SDS011;44806;48.008;13.666;2023-09-18T12:43:12;11.75;;;4.00;;
59024;SDS011;44806;48.008;13.666;2023-09-18T12:45:40;13.50;;;3.92;;
59024;SDS011;44806;48.008;13.666;2023-09-18T12:48:09;8.90;;;3.38;;
59024;SDS011;44806;48.008;13.666;2023-09-18T12:50:37;11.10;;;3.40;;
59024;SDS011;44806;48.008;13.666;2023-09-18T12:53:10;9.20;;;3.50;;
59024;SDS011;44806;48.008;13.666;2023-09-18T12:55:39;13.15;;;3.75;;
59024;SDS011;44806;48.008;13.666;2023-09-18T12:58:10;10.63;;;3.65;;
59024;SDS011;44806;48.008;13.666;2023-09-18T13:00:44;8.30;;;3.45;;
59024;SDS011;44806;48.008;13.666;2023-09-18T13:03:12;12.75;;;3.53;;
59024;SDS011;44806;48.008;13.666;2023-09-18T13:05:39;9.00;;;3.50;;
59024;SDS011;44806;48.008;13.666;2023-09-18T13:08:06;13.98;;;3.88;;
59024;SDS011;44806;48.008;13.666;2023-09-18T13:10:45;9.50;;;3.55;;
59024;SDS011;44806;48.008;13.666;2023-09-18T13:13:16;14.35;;;4.07;;
59024;SDS011;44806;48.008;13.666;2023-09-18T13:15:43;9.95;;;3.60;;
59024;SDS011;44806;48.008;13.666;2023-09-18T13:18:13;9.45;;;3.90;;
59024;SDS011;44806;48.008;13.666;2023-09-18T13:20:41;10.52;;;4.05;;
59024;SDS011;44806;48.008;13.666;2023-09-18T13:23:08;9.52;;;3.35;;
59024;SDS011;44806;48.008;13.666;2023-09-18T13:25:36;9.65;;;3.42;;
59024;SDS011;44806;48.008;13.666;2023-09-18T13:28:06;11.63;;;3.92;;
59024;SDS011;44806;48.008;13.666;2023-09-18T13:30:35;11.70;;;3.70;;
59024;SDS011;44806;48.008;13.666;2023-09-18T13:33:04;11.70;;;4.10;;
59024;SDS011;44806;48.008;13.666;2023-09-18T13:35:33;12.07;;;3.63;;
59024;SDS011;44806;48.008;13.666;2023-09-18T13:38:00;14.07;;;3.65;;
59024;SDS011;44806;48.008;13.666;2023-09-18T13:40:29;9.30;;;3.42;;
59024;SDS011;44806;48.008;13.666;2023-09-18T13:42:56;12.30;;;3.70;;
59024;SDS011;44806;48.008;13.666;2023-09-18T13:45:24;12.23;;;3.65;;
59024;SDS011;44806;48.008;13.666;2023-09-18T13:47:51;12.18;;;3.80;;
59024;SDS011;44806;48.008;13.666;2023-09-18T13:50:19;9.73;;;3.55;;
59024;SDS011;44806;48.008;13.666;2023-09-18T13:52:46;8.40;;;2.30;;
59024;SDS011;44806;48.008;13.666;2023-09-18T13:55:13;9.82;;;2.72;;
59024;SDS011;44806;48.008;13.666;2023-09-18T13:57:40;7.22;;;2.22;;
59024;SDS011;44806;48.008;13.666;2023-09-18T14:00:07;8.10;;;2.25;;
59024;SDS011;44806;48.008;13.666;2023-09-18T14:02:38;9.65;;;2.60;;
59024;SDS011;44806;48.008;13.666;2023-09-18T14:05:06;9.00;;;2.53;;
59024;SDS011;44806;48.008;13.666;2023-09-18T14:07:34;8.15;;;2.45;;
59024;SDS011;44806;48.008;13.666;2023-09-18T14:10:01;11.70;;;3.50;;
59024;SDS011;44806;48.008;13.666;2023-09-18T14:12:29;9.35;;;2.25;;
59024;SDS011;44806;48.008;13.666;2023-09-18T14:14:56;9.80;;;3.33;;
59024;SDS011;44806;48.008;13.666;2023-09-18T14:17:24;7.82;;;2.63;;
59024;SDS011;44806;48.008;13.666;2023-09-18T14:19:53;8.20;;;2.35;;
59024;SDS011;44806;48.008;13.666;2023-09-18T14:22:20;10.85;;;3.45;;
59024;SDS011;44806;48.008;13.666;2023-09-18T14:24:55;7.13;;;2.08;;
59024;SDS011;44806;48.008;13.666;2023-09-18T14:27:22;13.23;;;2.97;;
59024;SDS011;44806;48.008;13.666;2023-09-18T14:29:49;6.47;;;2.22;;
59024;SDS011;44806;48.008;13.666;2023-09-18T14:32:16;9.23;;;2.38;;
59024;SDS011;44806;48.008;13.666;2023-09-18T14:34:44;7.75;;;2.15;;
59024;SDS011;44806;48.008;13.666;2023-09-18T14:37:12;11.77;;;3.47;;
59024;SDS011;44806;48.008;13.666;2023-09-18T14:39:39;8.95;;;2.40;;
59024;SDS011;44806;48.008;13.666;2023-09-18T14:42:06;5.68;;;1.77;;
59024;SDS011;44806;48.008;13.666;2023-09-18T14:44:33;8.27;;;2.15;;
59024;SDS011;44806;48.008;13.666;2023-09-18T14:47:00;10.23;;;2.75;;
59024;SDS011;44806;48.008;13.666;2023-09-18T14:49:27;11.07;;;2.55;;
59024;SDS011;44806;48.008;13.666;2023-09-18T14:51:55;12.40;;;2.83;;